Time;durP1;ratioP1;P1;durP2;ratioP2;P2;SDS_P1;SDS_P2;PMS_P1;PMS_P2;Temp;Humidity;BMP_temperature;BMP_pressure;BME280_temperature;BME280_humidity;BME280_pressure;Samples;Min_cycle;Max_cycle;Signal;HPM_P1;HPM_P2
2023/08/27 00:00:45;;;;;;;7.43;5.57;;;;;;;24.09;69.45;65531.28;5070978;28;20197;-54
2023/08/27 00:03:10;;;;;;;9.13;5.95;;;;;;;24.24;68.50;65549.94;5071156;28;20193;-56
2023/08/27 00:05:42;;;;;;;6.78;5.60;;;;;;;24.27;67.78;65551.22;5070960;28;20592;-54
2023/08/27 00:08:08;;;;;;;8.90;5.80;;;;;;;24.05;69.24;65529.41;5071023;28;20294;-54
2023/08/27 00:10:34;;;;;;;8.23;5.75;;;;;;;24.06;69.68;65530.50;5070943;28;20556;-54
2023/08/27 00:12:59;;;;;;;6.75;5.78;;;;;;;23.99;70.05;65520.16;5070893;28;20226;-55
2023/08/27 00:15:25;;;;;;;7.70;6.63;;;;;;;24.00;69.29;65521.81;5070832;28;20232;-55
2023/08/27 00:17:51;;;;;;;6.93;6.05;;;;;;;24.03;70.00;65525.19;5071217;28;20247;-55
2023/08/27 00:20:17;;;;;;;5.88;5.28;;;;;;;23.97;69.66;65521.09;5070523;28;20693;-54
2023/08/27 00:22:42;;;;;;;6.97;5.60;;;;;;;23.96;69.07;65519.41;5071032;28;20216;-54
2023/08/27 00:25:08;;;;;;;6.25;5.65;;;;;;;24.00;69.38;65524.41;5070870;28;20212;-54
2023/08/27 00:27:34;;;;;;;8.77;5.22;;;;;;;24.00;68.80;65523.84;5070457;28;20270;-58
2023/08/27 00:30:00;;;;;;;5.25;4.68;;;;;;;24.03;68.26;65527.75;5070551;28;20206;-58
2023/08/27 00:32:28;;;;;;;5.97;5.10;;;;;;;23.98;68.88;65522.19;5070599;28;20591;-55
2023/08/27 00:34:54;;;;;;;6.30;4.97;;;;;;;23.98;68.48;65519.03;5070663;28;20200;-55
2023/08/27 00:37:20;;;;;;;6.85;5.50;;;;;;;23.89;68.87;65509.09;5070881;28;20219;-57
2023/08/27 00:39:45;;;;;;;7.05;6.00;;;;;;;23.99;67.40;65520.16;5070515;28;20223;-59
2023/08/27 00:42:11;;;;;;;7.93;5.85;;;;;;;23.86;69.23;65508.31;5070712;28;20219;-57
2023/08/27 00:44:37;;;;;;;5.43;4.88;;;;;;;23.79;69.39;65498.56;5070496;28;20521;-55
2023/08/27 00:47:04;;;;;;;7.90;5.10;;;;;;;23.75;69.17;65494.13;5070472;28;20304;-54
2023/08/27 00:49:30;;;;;;;7.85;5.72;;;;;;;23.70;69.86;65493.72;5070446;28;20208;-54
2023/08/27 00:51:56;;;;;;;7.22;5.22;;;;;;;23.75;69.88;65498.72;5070451;28;20303;-56
2023/08/27 00:54:24;;;;;;;6.20;5.60;;;;;;;23.79;70.20;65498.56;5070542;28;20264;-57
2023/08/27 00:56:50;;;;;;;7.38;5.82;;;;;;;23.69;70.74;65487.47;5070285;28;20213;-55
2023/08/27 00:59:16;;;;;;;6.05;5.45;;;;;;;23.68;70.94;65488.38;5069242;28;20212;-55
2023/08/27 01:01:43;;;;;;;10.45;6.20;;;;;;;23.51;71.54;65469.53;5070315;28;20204;-54
2023/08/27 01:04:09;;;;;;;9.25;5.95;;;;;;;23.38;72.45;65452.56;5052335;28;20197;-55
2023/08/27 01:06:35;;;;;;;5.45;4.93;;;;;;;23.38;72.79;65452.56;5052131;28;20213;-54
2023/08/27 01:09:30;;;;;;;6.50;5.70;;;;;;;23.43;71.31;65463.25;5070083;28;20224;-53
2023/08/27 01:12:09;;;;;;;8.13;5.55;;;;;;;23.33;72.31;65450.16;5070232;28;20711;-55
2023/08/27 01:14:36;;;;;;;6.10;5.28;;;;;;;23.31;71.62;65447.91;5070301;28;20213;-55
2023/08/27 01:17:07;;;;;;;7.68;5.05;;;;;;;23.35;71.67;65452.38;5070289;28;20287;-54
2023/08/27 01:19:33;;;;;;;7.70;5.13;;;;;;;23.41;70.34;65459.03;5052208;28;20197;-53
2023/08/27 01:21:58;;;;;;;8.07;5.72;;;;;;;23.31;71.80;65445.91;5051817;28;20212;-54
2023/08/27 01:24:24;;;;;;;6.68;4.95;;;;;;;23.39;71.17;65456.25;5069936;28;20733;-55
2023/08/27 01:27:13;;;;;;;9.65;5.25;;;;;;;23.37;71.33;65451.44;5069702;28;20212;-54
2023/08/27 01:29:57;;;;;;;5.22;4.72;;;;;;;23.49;70.61;65464.75;5069824;28;20207;-55
2023/08/27 01:32:35;;;;;;;7.05;4.90;;;;;;;23.38;71.07;65452.56;5069807;28;20228;-55
2023/08/27 01:35:03;;;;;;;7.32;5.68;;;;;;;23.27;72.34;65443.47;5069706;28;20206;-55
2023/08/27 01:37:29;;;;;;;6.57;5.15;;;;;;;23.34;72.39;65451.81;5069594;28;20211;-56
2023/08/27 01:40:05;;;;;;;12.13;7.28;;;;;;;23.34;72.24;65451.25;5069682;28;20201;-54
2023/08/27 01:42:32;;;;;;;6.32;5.63;;;;;;;23.27;72.74;65443.47;5069572;28;20286;-54
2023/08/27 01:44:58;;;;;;;7.22;5.63;;;;;;;23.29;71.93;65443.13;5069770;28;20209;-54
2023/08/27 01:47:24;;;;;;;7.18;5.38;;;;;;;23.22;72.27;65435.38;5069766;28;20213;-54
2023/08/27 01:49:50;;;;;;;6.55;5.50;;;;;;;23.19;72.31;65432.59;5069583;28;20697;-56
2023/08/27 01:52:16;;;;;;;10.80;6.10;;;;;;;23.07;73.67;65419.28;5069446;28;20269;-55
2023/08/27 01:54:41;;;;;;;9.80;5.47;;;;;;;23.11;72.36;65423.16;5069542;28;20200;-55
2023/08/27 01:57:07;;;;;;;8.70;5.82;;;;;;;23.23;71.91;65439.59;5069232;28;20691;-53
2023/08/27 01:59:33;;;;;;;8.23;5.30;;;;;;;23.21;72.97;65434.81;5069340;28;20215;-56
2023/08/27 02:01:59;;;;;;;7.57;5.40;;;;;;;23.10;73.25;65425.19;5051358;28;20249;-55
2023/08/27 02:04:24;;;;;;;8.63;5.53;;;;;;;23.07;72.77;65421.88;5069314;28;20216;-54
2023/08/27 02:06:50;;;;;;;6.13;5.13;;;;;;;23.03;72.99;65417.44;5069159;28;20236;-54
2023/08/27 02:09:15;;;;;;;7.78;5.10;;;;;;;22.87;74.76;65399.72;5069543;28;20529;-55
2023/08/27 02:11:42;;;;;;;8.05;5.50;;;;;;;22.97;73.59;65410.22;5071830;28;20208;-55
2023/08/27 02:14:14;;;;;;;9.30;4.97;;;;;;;22.85;74.25;65396.94;5072899;28;20196;-55
2023/08/27 02:16:39;;;;;;;7.72;5.15;;;;;;;22.90;73.76;65400.47;5072787;28;20228;-55
2023/08/27 02:19:04;;;;;;;7.78;5.50;;;;;;;22.97;72.93;65410.22;5072580;28;20698;-58
2023/08/27 02:21:30;;;;;;;5.93;5.43;;;;;;;22.97;74.02;65413.38;5072547;28;20209;-55
2023/08/27 02:23:56;;;;;;;6.28;5.35;;;;;;;23.02;73.67;65415.78;5072698;28;20185;-55
2023/08/27 02:26:21;;;;;;;7.60;5.70;;;;;;;23.04;73.52;65418.56;5054139;28;20755;-52
2023/08/27 02:28:47;;;;;;;6.65;5.25;;;;;;;22.96;73.74;65407.13;5072708;28;20208;-54
2023/08/27 02:31:13;;;;;;;6.43;5.57;;;;;;;22.89;75.10;65404.50;5072347;28;20205;-55
2023/08/27 02:33:43;;;;;;;6.32;4.97;;;;;;;22.91;76.15;65406.72;5072372;28;20286;-55
2023/08/27 02:36:08;;;;;;;9.27;5.45;;;;;;;22.99;75.33;65415.56;5072476;28;20201;-54
2023/08/27 02:38:34;;;;;;;8.35;5.85;;;;;;;23.09;74.91;65424.09;5072574;28;20603;-53
2023/08/27 02:40:59;;;;;;;7.10;5.50;;;;;;;23.11;75.31;65425.75;5072096;28;20196;-54
2023/08/27 02:43:25;;;;;;;8.13;5.68;;;;;;;23.10;75.16;65422.63;5072409;28;20201;-54
2023/08/27 02:45:51;;;;;;;5.93;5.28;;;;;;;22.98;75.61;65414.47;5054094;28;20666;-55
2023/08/27 02:48:16;;;;;;;8.10;5.75;;;;;;;22.96;75.68;65412.25;5072061;28;20205;-54
2023/08/27 02:50:42;;;;;;;7.78;5.78;;;;;;;22.80;76.79;65394.53;5072247;28;20246;-54
2023/08/27 02:53:07;;;;;;;7.20;5.53;;;;;;;22.85;76.80;65396.94;5072011;28;20242;-54
2023/08/27 02:55:34;;;;;;;7.30;5.70;;;;;;;22.78;76.75;65389.75;5072072;28;20200;-54
2023/08/27 02:58:00;;;;;;;5.82;5.22;;;;;;;22.78;76.68;65389.75;5071932;28;20225;-55
2023/08/27 03:00:26;;;;;;;6.30;5.32;;;;;;;22.81;76.76;65392.50;5072380;28;20208;-55
2023/08/27 03:02:52;;;;;;;9.27;5.65;;;;;;;22.62;77.49;65369.47;5071983;28;20209;-53
2023/08/27 03:05:18;;;;;;;9.20;6.18;;;;;;;22.47;78.93;65355.41;5071814;28;20205;-55
2023/08/27 03:07:45;;;;;;;10.93;6.07;;;;;;;22.45;78.42;65350.63;5071776;28;20205;-56
2023/08/27 03:10:11;;;;;;;8.15;5.93;;;;;;;22.40;79.28;65347.66;5054047;28;20713;-55
2023/08/27 03:12:37;;;;;;;6.72;5.60;;;;;;;22.52;77.49;65360.94;5071886;28;20205;-55
2023/08/27 03:15:03;;;;;;;6.93;5.78;;;;;;;22.59;79.02;65366.13;5071810;28;20208;-55
2023/08/27 03:17:28;;;;;;;5.40;4.90;;;;;;;22.52;76.95;65361.50;5072236;28;20240;-54
2023/08/27 03:19:54;;;;;;;6.45;5.20;;;;;;;22.62;77.69;65374.63;5053664;28;20621;-54
2023/08/27 03:22:21;;;;;;;8.60;5.38;;;;;;;22.73;77.43;65384.22;5070766;28;20631;-54
2023/08/27 03:24:46;;;;;;;6.38;5.20;;;;;;;22.70;76.80;65380.34;5071569;28;20205;-55
2023/08/27 03:27:12;;;;;;;7.00;5.57;;;;;;;22.70;77.48;65378.34;5071824;28;20223;-55
2023/08/27 03:29:38;;;;;;;7.82;5.70;;;;;;;22.50;78.80;65358.72;5071650;28;20205;-55
2023/08/27 03:32:04;;;;;;;9.75;6.38;;;;;;;22.65;79.33;65370.22;5071715;28;20220;-63
2023/08/27 03:34:30;;;;;;;8.38;5.85;;;;;;;22.59;79.45;65368.72;5071501;28;20203;-55
2023/08/27 03:36:55;;;;;;;12.88;5.97;;;;;;;22.54;79.30;65361.13;5053252;28;20217;-53
2023/08/27 03:39:21;;;;;;;7.35;5.72;;;;;;;22.72;78.88;65380.53;5071524;28;20200;-56
2023/08/27 03:41:46;;;;;;;7.43;6.22;;;;;;;22.78;78.04;65389.75;5071367;28;20216;-55
2023/08/27 03:44:12;;;;;;;9.05;6.05;;;;;;;22.68;77.43;65378.69;5071425;28;20560;-55
2023/08/27 03:46:40;;;;;;;7.45;5.95;;;;;;;22.49;79.44;65360.75;5071137;28;20212;-60
2023/08/27 03:49:05;;;;;;;8.02;6.32;;;;;;;22.44;78.58;65357.78;5071295;28;20266;-55
2023/08/27 03:51:31;;;;;;;7.80;5.95;;;;;;;22.31;79.95;65337.69;5071369;28;20212;-55
2023/08/27 03:54:00;;;;;;;6.18;5.50;;;;;;;22.48;79.12;65356.53;5071171;28;20671;-55
2023/08/27 03:56:26;;;;;;;6.53;5.45;;;;;;;22.53;78.40;65362.03;5071050;28;20208;-54
2023/08/27 03:58:51;;;;;;;8.07;5.60;;;;;;;22.47;79.07;65355.41;5071239;28;20207;-55
2023/08/27 04:01:16;;;;;;;6.50;5.30;;;;;;;22.34;80.00;65344.13;5053502;28;20670;-55
2023/08/27 04:03:42;;;;;;;6.80;5.85;;;;;;;22.33;79.54;65340.47;5071083;28;20697;-55
2023/08/27 04:06:10;;;;;;;6.55;5.55;;;;;;;22.38;79.04;65342.88;5070752;28;20228;-57
2023/08/27 04:08:35;;;;;;;6.45;5.40;;;;;;;22.42;79.64;65349.88;5071089;28;20204;-54
2023/08/27 04:11:02;;;;;;;8.15;5.30;;;;;;;22.37;79.18;65346.91;5052830;28;20663;-54
2023/08/27 04:13:27;;;;;;;8.60;5.55;;;;;;;22.22;79.66;65325.16;5070987;28;20231;-56
2023/08/27 04:16:03;;;;;;;9.73;5.28;;;;;;;22.28;79.02;65334.38;5070838;28;20687;-55
2023/08/27 04:18:29;;;;;;;6.78;5.60;;;;;;;22.20;79.57;65326.06;5070896;28;20208;-55
2023/08/27 04:20:55;;;;;;;6.35;5.65;;;;;;;22.23;79.60;65329.41;5070900;28;20633;-57
2023/08/27 04:23:21;;;;;;;8.80;5.82;;;;;;;22.05;81.07;65308.91;5070773;28;20747;-54
2023/08/27 04:25:47;;;;;;;6.07;5.47;;;;;;;21.99;81.68;65299.72;5070965;28;20193;-56
2023/08/27 04:28:13;;;;;;;7.38;5.55;;;;;;;21.95;82.57;65295.28;5071397;28;20235;-54
2023/08/27 04:30:39;;;;;;;5.90;5.30;;;;;;;21.93;82.48;65296.19;5070875;28;20204;-55
2023/08/27 04:33:07;;;;;;;5.88;5.07;;;;;;;22.17;81.34;65322.19;5070358;28;20217;-55
2023/08/27 04:35:33;;;;;;;9.13;5.72;;;;;;;22.35;80.21;65342.13;5070742;28;20200;-55
2023/08/27 04:37:59;;;;;;;6.50;5.25;;;;;;;22.39;80.31;65346.53;5052668;28;20270;-55
2023/08/27 04:40:25;;;;;;;10.90;6.05;;;;;;;22.46;80.02;65354.31;5070667;28;20260;-56
2023/08/27 04:42:50;;;;;;;10.05;6.18;;;;;;;22.34;80.72;65343.59;5070400;28;20694;-55
2023/08/27 04:45:16;;;;;;;7.72;5.80;;;;;;;22.12;82.00;65316.69;5052422;28;20201;-55
2023/08/27 04:47:41;;;;;;;9.27;6.15;;;;;;;22.06;82.98;65310.56;5070745;28;20212;-54
2023/08/27 04:50:08;;;;;;;8.35;5.93;;;;;;;22.17;82.39;65322.19;5070536;28;20363;-53
2023/08/27 04:52:37;;;;;;;8.55;6.38;;;;;;;22.13;82.92;65318.31;5070678;28;20216;-55
2023/08/27 04:55:06;;;;;;;7.63;6.05;;;;;;;22.14;82.91;65322.00;5070637;28;20238;-54
2023/08/27 04:57:35;;;;;;;8.00;6.32;;;;;;;22.17;83.50;65322.19;5070541;28;20205;-54
2023/08/27 05:00:09;;;;;;;14.25;8.27;;;;;;;21.93;85.72;65293.06;5070174;28;20685;-54
2023/08/27 05:02:35;;;;;;;8.80;7.55;;;;;;;21.93;86.49;65298.75;5070143;28;20220;-55
2023/08/27 05:05:01;;;;;;;10.15;6.93;;;;;;;22.09;85.56;65315.91;5070155;28;20694;-54
2023/08/27 05:07:27;;;;;;;8.23;6.97;;;;;;;22.18;84.96;65323.84;5069935;28;20291;-57
2023/08/27 05:09:53;;;;;;;10.20;8.95;;;;;;;22.05;87.25;65308.91;5052166;28;20196;-54
2023/08/27 05:12:19;;;;;;;11.68;9.00;;;;;;;21.92;88.56;65294.53;5070401;28;20216;-54
2023/08/27 05:14:44;;;;;;;13.60;9.13;;;;;;;21.87;89.21;65289.00;5069969;28;20667;-55
2023/08/27 05:17:10;;;;;;;13.90;11.45;;;;;;;21.80;89.92;65281.78;5069808;28;20303;-55
2023/08/27 05:19:36;;;;;;;24.65;19.85;;;;;;;21.75;90.11;65281.38;5069941;28;20204;-55
2023/08/27 05:22:02;;;;;;;11.32;8.43;;;;;;;21.74;86.42;65278.25;5070258;28;20204;-53
2023/08/27 05:24:28;;;;;;;9.30;7.47;;;;;;;22.25;79.96;65331.06;5052157;28;20205;-54
2023/08/27 05:26:53;;;;;;;9.13;6.88;;;;;;;22.53;77.40;65362.59;5035245;28;20270;-54
2023/08/27 05:29:19;;;;;;;7.90;6.47;;;;;;;22.79;76.26;65390.28;5069958;28;20690;-55
2023/08/27 05:31:44;;;;;;;10.68;7.38;;;;;;;23.03;77.93;65416.88;5070023;28;20208;-55
2023/08/27 05:34:10;;;;;;;11.15;8.77;;;;;;;23.03;78.43;65414.31;5051911;28;20691;-54
2023/08/27 05:36:36;;;;;;;9.48;7.72;;;;;;;23.08;78.21;65422.97;5070047;28;20299;-55
2023/08/27 05:39:02;;;;;;;9.73;7.60;;;;;;;23.18;79.96;65433.50;5069774;28;20197;-55
2023/08/27 05:41:28;;;;;;;9.88;7.07;;;;;;;23.24;77.98;65435.00;5069811;28;20208;-54
2023/08/27 05:43:54;;;;;;;11.10;8.18;;;;;;;23.31;78.49;65442.78;5069675;28;20265;-56
2023/08/27 05:46:20;;;;;;;9.68;7.18;;;;;;;23.29;78.24;65443.66;5071728;28;20217;-55
2023/08/27 05:48:46;;;;;;;10.30;7.80;;;;;;;23.20;78.94;65436.28;5073303;28;20197;-54
2023/08/27 05:51:11;;;;;;;14.90;6.85;;;;;;;23.41;84.47;65459.03;5055140;28;20197;-58
2023/08/27 05:53:38;;;;;;;12.10;8.98;;;;;;;23.34;78.85;65454.38;5072996;28;20210;-55
2023/08/27 05:56:04;;;;;;;9.88;6.25;;;;;;;23.51;80.54;65467.53;5073061;28;20207;-54
2023/08/27 05:58:29;;;;;;;10.02;7.40;;;;;;;23.65;79.65;65482.47;5073056;28;20204;-58
2023/08/27 06:00:55;;;;;;;11.88;6.35;;;;;;;23.84;80.33;65503.53;5073118;28;20197;-54
2023/08/27 06:03:21;;;;;;;11.20;8.55;;;;;;;23.92;77.65;65512.94;5073206;28;20642;-54
2023/08/27 06:05:47;;;;;;;24.38;14.18;;;;;;;24.04;78.69;65530.88;5072984;28;20212;-55
2023/08/27 06:08:12;;;;;;;23.38;8.23;;;;;;;24.10;78.62;65534.94;5072911;28;20215;-54
2023/08/27 06:10:38;;;;;;;19.00;11.75;;;;;;;24.22;83.95;65547.72;5073125;28;20189;-54
2023/08/27 06:13:03;;;;;;;18.23;9.95;;;;;;;24.41;82.27;65569.34;5072925;28;20300;-55
2023/08/27 06:15:31;;;;;;;10.57;7.57;;;;;;;24.51;80.55;65577.84;5073038;28;20307;-54
2023/08/27 06:18:02;;;;;;;16.33;9.32;;;;;;;24.67;79.23;65597.59;5073069;28;20217;-55
2023/08/27 06:20:28;;;;;;;9.65;7.75;;;;;;;24.67;72.03;65598.16;5073243;28;20252;-55
2023/08/27 06:22:53;;;;;;;10.77;7.85;;;;;;;24.61;77.04;65588.94;5055008;28;20797;-55
2023/08/27 06:25:21;;;;;;;15.65;8.13;;;;;;;24.68;77.25;65596.16;5072999;28;20196;-55
2023/08/27 06:27:46;;;;;;;13.70;7.82;;;;;;;24.80;76.96;65612.63;5072983;28;20242;-55
2023/08/27 06:30:12;;;;;;;11.27;7.88;;;;;;;24.68;72.51;65596.16;5072845;28;20209;-54
2023/08/27 06:32:38;;;;;;;8.90;7.50;;;;;;;24.51;73.31;65577.28;5072439;28;20221;-55
2023/08/27 06:35:03;;;;;;;8.18;6.97;;;;;;;24.15;73.52;65541.06;5072577;28;20567;-55
2023/08/27 06:37:29;;;;;;;30.58;24.60;;;;;;;24.44;74.46;65569.53;5072304;28;20664;-54
2023/08/27 06:39:55;;;;;;;18.98;15.25;;;;;;;24.49;74.12;65578.19;5072457;28;20193;-54
2023/08/27 06:42:20;;;;;;;10.40;7.53;;;;;;;24.32;74.66;65553.66;5079933;22;20215;-54
2023/08/27 06:44:46;;;;;;;14.45;9.95;;;;;;;24.40;75.74;65567.66;5071986;28;20217;-55
2023/08/27 06:47:11;;;;;;;9.77;8.25;;;;;;;24.59;73.73;65586.16;5072136;28;20239;-55
2023/08/27 06:49:37;;;;;;;10.25;7.57;;;;;;;24.67;73.65;65597.59;5072436;28;20231;-55
2023/08/27 06:52:03;;;;;;;10.18;8.30;;;;;;;24.66;72.67;65596.50;5054087;28;20354;-53
2023/08/27 06:54:29;;;;;;;14.75;7.22;;;;;;;24.38;72.87;65565.44;5072373;28;20687;-55
2023/08/27 06:56:55;;;;;;;7.70;6.55;;;;;;;24.28;73.60;65554.91;5053084;28;20208;-55
2023/08/27 06:59:20;;;;;;;9.60;7.72;;;;;;;24.32;75.23;65556.75;5072415;28;20695;-53
2023/08/27 07:01:46;;;;;;;9.80;8.32;;;;;;;24.56;73.77;65585.41;5072140;28;20691;-55
2023/08/27 07:04:13;;;;;;;10.07;7.32;;;;;;;24.51;73.44;65577.28;5072245;28;20200;-54
2023/08/27 07:06:38;;;;;;;11.23;7.85;;;;;;;24.59;73.58;65586.72;5072059;28;20240;-54
2023/08/27 07:09:07;;;;;;;7.82;7.05;;;;;;;24.61;72.72;65593.53;5071953;28;20220;-56
2023/08/27 07:11:34;;;;;;;7.97;7.18;;;;;;;24.92;71.30;65625.38;5071993;28;20301;-55
2023/08/27 07:13:59;;;;;;;10.05;7.38;;;;;;;24.81;70.80;65611.13;5054111;28;20205;-55
2023/08/27 07:16:26;;;;;;;9.20;6.95;;;;;;;24.88;70.55;65618.91;5071728;28;20204;-55
2023/08/27 07:18:53;;;;;;;9.90;7.38;;;;;;;25.22;67.61;65655.53;5072228;28;20208;-55
2023/08/27 07:21:18;;;;;;;10.30;7.45;;;;;;;25.17;68.82;65647.94;5053962;28;20211;-55
2023/08/27 07:23:44;;;;;;;9.77;7.47;;;;;;;25.15;68.47;65647.75;5071994;28;20212;-54
2023/08/27 07:26:09;;;;;;;10.10;7.43;;;;;;;25.19;69.58;65652.19;5071608;28;20236;-55
2023/08/27 07:28:35;;;;;;;8.75;7.28;;;;;;;25.44;68.44;65677.94;5053842;28;20663;-54
2023/08/27 07:31:00;;;;;;;8.30;7.03;;;;;;;25.46;67.92;65682.19;5071534;28;20250;-55
2023/08/27 07:33:27;;;;;;;9.98;6.57;;;;;;;25.60;67.66;65698.28;5072127;28;20346;-54
2023/08/27 07:35:52;;;;;;;9.52;7.25;;;;;;;25.53;65.56;65689.97;5053626;28;20201;-62
2023/08/27 07:38:18;;;;;;;7.80;7.00;;;;;;;25.60;66.23;65697.72;5071999;28;20765;-56
2023/08/27 07:40:43;;;;;;;10.15;6.78;;;;;;;25.60;65.62;65697.72;5071584;28;20637;-59
2023/08/27 07:43:09;;;;;;;8.73;6.95;;;;;;;25.59;64.45;65697.16;5071809;28;20216;-55
2023/08/27 07:45:35;;;;;;;9.77;6.82;;;;;;;25.67;64.05;65705.50;5071043;28;20204;-55
2023/08/27 07:48:01;;;;;;;9.88;7.03;;;;;;;25.72;63.68;65713.63;5071225;28;20208;-55
2023/08/27 07:50:26;;;;;;;8.43;6.85;;;;;;;25.70;62.84;65708.81;5071340;28;20200;-57
2023/08/27 07:52:53;;;;;;;8.10;6.70;;;;;;;25.90;63.15;65731.03;5071412;28;20236;-55
2023/08/27 07:55:19;;;;;;;10.55;6.50;;;;;;;26.09;63.74;65754.19;5071339;28;20204;-55
2023/08/27 07:57:45;;;;;;;9.15;6.40;;;;;;;26.11;61.72;65756.41;5053137;28;20235;-54
2023/08/27 08:00:15;;;;;;;9.30;7.25;;;;;;;26.24;61.92;65768.81;5071167;28;20216;-56
2023/08/27 08:02:41;;;;;;;8.20;7.00;;;;;;;26.27;60.30;65771.59;5071265;28;20299;-54
2023/08/27 08:05:07;;;;;;;8.43;6.80;;;;;;;26.28;60.56;65773.25;5071192;28;20280;-55
2023/08/27 08:07:35;;;;;;;11.40;6.93;;;;;;;26.32;59.86;65777.69;5071026;28;20217;-56
2023/08/27 08:10:01;;;;;;;7.40;6.57;;;;;;;26.27;58.75;65771.59;5070568;28;20192;-55
2023/08/27 08:12:27;;;;;;;9.05;6.45;;;;;;;26.40;58.02;65786.59;5052773;28;20208;-56
2023/08/27 08:14:52;;;;;;;9.20;7.18;;;;;;;26.60;58.47;65805.69;5070909;28;20212;-54
2023/08/27 08:17:18;;;;;;;8.70;6.40;;;;;;;26.82;56.25;65832.16;5070759;28;20232;-54
2023/08/27 08:19:52;;;;;;;8.00;6.30;;;;;;;26.98;55.34;65849.94;5070806;28;20579;-56
2023/08/27 08:22:18;;;;;;;8.65;6.78;;;;;;;26.94;57.03;65846.06;5070833;28;20216;-55
2023/08/27 08:24:43;;;;;;;8.52;6.63;;;;;;;27.15;56.95;65869.41;5070651;28;20287;-54
2023/08/27 08:27:09;;;;;;;10.68;6.22;;;;;;;27.03;55.26;65856.06;5070638;28;20209;-55
2023/08/27 08:29:35;;;;;;;7.28;6.15;;;;;;;27.05;54.92;65857.75;5070850;28;20201;-55
2023/08/27 08:32:01;;;;;;;8.15;6.07;;;;;;;27.17;55.12;65871.63;5070622;28;20732;-55
2023/08/27 08:34:30;;;;;;;7.43;5.78;;;;;;;27.17;53.03;65871.09;5070606;28;20204;-54
2023/08/27 08:36:56;;;;;;;9.63;5.95;;;;;;;27.29;53.01;65884.97;5070431;28;20205;-54
2023/08/27 08:39:24;;;;;;;8.40;5.75;;;;;;;27.49;51.47;65906.69;5070494;28;20215;-55
2023/08/27 08:42:02;;;;;;;7.93;6.20;;;;;;;27.55;51.93;65913.34;5070547;28;20204;-56
2023/08/27 08:44:54;;;;;;;7.22;5.60;;;;;;;27.81;51.21;65941.69;5070475;28;20773;-55
2023/08/27 08:47:21;;;;;;;8.55;5.97;;;;;;;28.13;49.46;65975.28;5053994;28;20208;-54
2023/08/27 08:49:53;;;;;;;7.63;5.85;;;;;;;28.25;51.42;65988.06;5070474;28;20563;-55
2023/08/27 08:52:24;;;;;;;7.07;5.47;;;;;;;28.27;49.41;65992.91;5070288;28;20220;-56
2023/08/27 08:54:53;;;;;;;9.10;6.13;;;;;;;28.42;49.68;66009.59;5070561;28;20237;-56
2023/08/27 08:57:19;;;;;;;6.95;5.75;;;;;;;28.64;48.01;66033.53;5070322;28;20208;-55
2023/08/27 08:59:47;;;;;;;7.20;6.00;;;;;;;28.70;48.18;66040.78;5070249;28;20218;-55
2023/08/27 09:02:14;;;;;;;12.07;5.75;;;;;;;28.85;47.86;66054.31;5070190;28;20201;-55
2023/08/27 09:04:41;;;;;;;11.38;7.68;;;;;;;29.08;48.07;66082.53;5070347;28;20196;-55
2023/08/27 09:07:07;;;;;;;11.45;5.60;;;;;;;29.42;47.21;66117.81;5069841;28;20690;-56
2023/08/27 09:09:34;;;;;;;9.65;6.07;;;;;;;29.63;46.79;66143.81;5070076;28;20196;-55
2023/08/27 09:12:00;;;;;;;5.90;5.30;;;;;;;29.77;45.99;66156.81;5070017;28;20675;-54
2023/08/27 09:14:28;;;;;;;6.15;5.57;;;;;;;29.77;45.07;66156.25;5070073;28;20197;-55
2023/08/27 09:16:54;;;;;;;8.15;5.57;;;;;;;30.04;44.69;66186.34;5070060;28;20213;-55
2023/08/27 09:19:19;;;;;;;11.00;6.95;;;;;;;30.44;45.71;66233.00;5070250;28;20651;-55
2023/08/27 09:21:45;;;;;;;7.20;5.95;;;;;;;30.79;44.71;66269.41;5072534;28;20722;-54
2023/08/27 09:24:10;;;;;;;8.77;6.35;;;;;;;31.13;43.73;66304.72;5073559;28;20204;-55
2023/08/27 09:26:36;;;;;;;11.32;7.38;;;;;;;31.39;43.74;66335.81;5073612;28;20208;-56
2023/08/27 09:29:02;;;;;;;6.68;5.97;;;;;;;31.69;43.35;66369.28;5074062;28;20193;-54
2023/08/27 09:31:42;;;;;;;8.98;5.38;;;;;;;31.58;41.05;66359.59;5073583;28;20235;-60
2023/08/27 09:34:09;;;;;;;9.43;6.35;;;;;;;31.63;40.73;66362.59;5073690;28;20213;-55
2023/08/27 09:36:38;;;;;;;7.97;5.68;;;;;;;31.71;39.41;66370.94;5073260;28;20300;-55
2023/08/27 09:39:11;;;;;;;8.48;5.63;;;;;;;31.83;39.44;66384.34;5073296;28;20213;-55
2023/08/27 09:41:42;;;;;;;6.85;5.35;;;;;;;32.04;39.87;66410.41;5073341;28;20205;-55
2023/08/27 09:44:07;;;;;;;8.60;5.97;;;;;;;32.31;39.17;66435.31;5056075;28;20208;-55
2023/08/27 09:46:35;;;;;;;9.15;5.75;;;;;;;32.39;38.93;66446.31;5073132;28;20242;-55
2023/08/27 09:49:06;;;;;;;8.20;5.68;;;;;;;32.06;38.26;66410.03;5073157;28;20205;-55
2023/08/27 09:51:36;;;;;;;9.20;6.18;;;;;;;31.86;39.00;66387.69;5072996;28;20208;-55
2023/08/27 09:54:20;;;;;;;8.05;6.03;;;;;;;31.66;39.00;66367.97;5073542;28;20197;-56
2023/08/27 09:56:50;;;;;;;6.82;5.22;;;;;;;31.75;39.76;66375.97;5073069;28;20711;-55
2023/08/27 09:59:18;;;;;;;8.57;5.47;;;;;;;32.05;39.86;66406.31;5073483;28;20197;-55
2023/08/27 10:01:47;;;;;;;6.53;5.93;;;;;;;32.36;38.43;66443.53;5073045;28;20213;-55
2023/08/27 10:04:13;;;;;;;6.53;5.88;;;;;;;32.78;38.43;66487.84;5073045;28;20266;-55
2023/08/27 10:06:38;;;;;;;9.55;6.18;;;;;;;33.14;38.06;66526.94;5073085;28;20216;-56
2023/08/27 10:09:04;;;;;;;8.82;5.75;;;;;;;33.57;37.63;66577.63;5072888;28;20216;-55
2023/08/27 10:11:34;;;;;;;10.50;6.93;;;;;;;33.72;37.62;66591.75;5072898;28;20212;-55
2023/08/27 10:14:00;;;;;;;9.38;5.18;;;;;;;33.87;36.80;66611.16;5073419;28;20197;-54
2023/08/27 10:16:28;;;;;;;7.75;5.45;;;;;;;34.18;36.30;66643.19;5072603;28;20706;-56
2023/08/27 10:18:55;;;;;;;7.75;5.53;;;;;;;34.20;34.40;66648.06;5073192;28;20233;-55
2023/08/27 10:21:21;;;;;;;6.28;5.65;;;;;;;34.32;35.64;66660.94;5072908;28;20201;-55
2023/08/27 10:23:48;;;;;;;9.73;6.18;;;;;;;34.58;35.53;66690.03;5072959;28;20208;-55
2023/08/27 10:26:14;;;;;;;8.50;5.80;;;;;;;33.86;36.22;66607.41;5072709;28;20709;-55
2023/08/27 10:28:40;;;;;;;8.60;5.55;;;;;;;33.80;35.87;66603.31;5054721;28;20274;-56
2023/08/27 10:31:07;;;;;;;8.77;5.47;;;;;;;34.27;35.77;66653.28;5072332;28;20714;-55
2023/08/27 10:33:32;;;;;;;7.80;4.82;;;;;;;34.28;33.45;66654.38;5072417;28;20216;-58
2023/08/27 10:36:05;;;;;;;6.50;4.88;;;;;;;34.16;33.63;66640.41;5072526;28;20196;-56
2023/08/27 10:38:34;;;;;;;8.45;5.00;;;;;;;33.98;34.53;66626.06;5072904;28;20213;-55
2023/08/27 10:41:01;;;;;;;6.72;6.03;;;;;;;34.35;36.03;66662.22;5072430;28;20193;-55
2023/08/27 10:43:34;;;;;;;7.28;4.85;;;;;;;34.09;33.39;66635.19;5072560;28;20215;-55
2023/08/27 10:46:29;;;;;;;12.88;5.65;;;;;;;34.36;34.03;66663.31;5072499;28;20216;-56
2023/08/27 10:48:55;;;;;;;7.22;5.13;;;;;;;34.02;34.20;66625.31;5054826;28;20231;-55
2023/08/27 10:51:27;;;;;;;7.40;4.88;;;;;;;34.25;33.91;66653.09;5072352;28;20211;-55
2023/08/27 10:53:58;;;;;;;8.60;5.50;;;;;;;34.30;34.08;66659.22;5072468;28;20209;-55
2023/08/27 10:56:37;;;;;;;7.55;4.32;;;;;;;34.23;33.81;66648.81;5054083;28;20340;-56
2023/08/27 10:59:02;;;;;;;11.48;5.20;;;;;;;34.47;33.02;66678.25;5072769;28;20219;-55
2023/08/27 11:01:28;;;;;;;8.25;5.18;;;;;;;34.70;32.93;66700.81;5072160;28;20204;-55
2023/08/27 11:04:05;;;;;;;6.32;5.05;;;;;;;34.88;33.03;66723.56;5072710;28;20208;-56
2023/08/27 11:06:49;;;;;;;9.07;5.35;;;;;;;35.12;32.70;66747.25;5071944;28;20208;-54
2023/08/27 11:09:27;;;;;;;7.20;5.07;;;;;;;35.12;31.89;66747.25;5071955;28;20209;-55
2023/08/27 11:11:55;;;;;;;10.75;5.43;;;;;;;35.16;32.38;66752.31;5071942;28;20295;-55
2023/08/27 11:14:23;;;;;;;8.82;5.70;;;;;;;35.14;32.59;66752.69;5054149;28;20204;-55
2023/08/27 11:16:58;;;;;;;13.30;6.43;;;;;;;35.51;32.60;66793.00;5071826;28;20212;-57
2023/08/27 11:19:26;;;;;;;7.85;5.05;;;;;;;35.45;32.12;66784.75;5071860;28;20308;-56
2023/08/27 11:21:52;;;;;;;8.80;5.20;;;;;;;35.89;31.11;66833.47;5071953;28;20711;-61
2023/08/27 11:24:27;;;;;;;7.88;5.55;;;;;;;36.27;30.10;66878.09;5072358;28;20262;-57
2023/08/27 11:26:53;;;;;;;7.78;5.30;;;;;;;35.74;31.28;66816.09;5071662;28;20229;-56
2023/08/27 11:29:23;;;;;;;7.68;5.13;;;;;;;36.13;30.81;66860.34;5071737;28;20698;-55
2023/08/27 11:31:50;;;;;;;9.75;5.32;;;;;;;36.39;30.56;66888.34;5071581;28;20216;-57